Time,TemperatureF,DewpointF,PressureIn,WindDirection,WindDirectionDegrees,WindSpeedMPH,WindSpeedGustMPH,Humidity,HourlyPrecipIn,Conditions,Clouds,dailyrainin,SoftwareType,DateUTC
2013-01-24 00:00:00,32.1,22.8,29.92,ESE,123,0.0,5.0,68,0.00,,---,0.00,VWS V14.01,2013-01-24 05:00:00,
2013-01-24 00:10:00,32.2,22.8,29.92,SE,138,2.0,3.0,68,0.00,,---,0.00,VWS V14.01,2013-01-24 05:10:00,
2013-01-24 00:20:00,32.2,23.2,29.91,ESE,119,0.0,3.0,69,0.00,,---,0.00,VWS V14.01,2013-01-24 05:20:00,
2013-01-24 00:30:00,32.1,23.4,29.90,ESE,119,0.0,2.0,70,0.00,,---,0.00,VWS V14.01,2013-01-24 05:30:00,
2013-01-24 00:40:00,31.9,23.6,29.90,SE,127,0.0,3.0,71,0.00,,---,0.00,VWS V14.01,2013-01-24 05:40:00,
2013-01-24 00:50:00,31.9,23.9,29.88,SE,126,0.0,0.0,72,0.00,,---,0.00,VWS V14.01,2013-01-24 05:50:00,
2013-01-24 01:00:00,31.8,24.5,29.88,SE,126,0.0,0.0,74,0.00,,---,0.00,VWS V14.01,2013-01-24 06:00:00,
2013-01-24 01:10:00,31.6,24.3,29.88,SE,126,0.0,0.0,74,0.00,,---,0.00,VWS V14.01,2013-01-24 06:10:00,
2013-01-24 01:20:00,31.6,25.2,29.87,SE,126,0.0,0.0,77,0.00,,---,0.00,VWS V14.01,2013-01-24 06:20:00,
2013-01-24 01:30:00,32.1,26.6,29.87,SE,134,0.0,0.0,80,0.00,,---,0.00,VWS V14.01,2013-01-24 06:30:00,
2013-01-24 01:40:00,32.4,26.9,29.87,SE,127,0.0,3.0,80,0.00,,---,0.00,VWS V14.01,2013-01-24 06:40:00,
2013-01-24 01:50:00,32.5,27.0,29.87,SE,127,0.0,0.0,80,0.00,,---,0.00,VWS V14.01,2013-01-24 06:50:00,
2013-01-24 02:00:00,32.4,26.9,29.87,SE,128,0.0,0.0,80,0.00,,---,0.00,VWS V14.01,2013-01-24 07:00:00,
2013-01-24 02:10:00,32.2,27.0,29.87,SE,128,0.0,0.0,81,0.00,,---,0.00,VWS V14.01,2013-01-24 07:10:00,
2013-01-24 02:20:00,32.1,27.5,29.86,SE,127,0.0,1.0,83,0.00,,---,0.00,VWS V14.01,2013-01-24 07:20:00,
2013-01-24 02:30:00,32.2,27.6,29.85,SE,145,0.0,4.0,83,0.00,,---,0.00,VWS V14.01,2013-01-24 07:30:00,
2013-01-24 02:40:00,32.1,27.8,29.85,SE,145,0.0,0.0,84,0.00,,---,0.00,VWS V14.01,2013-01-24 07:40:00,
2013-01-24 02:50:00,32.1,27.5,29.85,SE,145,0.0,0.0,83,0.00,,---,0.00,VWS V14.01,2013-01-24 07:50:00,
2013-01-24 03:00:00,31.8,27.2,29.85,SE,145,0.0,0.0,83,0.00,,---,0.00,VWS V14.01,2013-01-24 08:00:00,
2013-01-24 03:10:00,31.3,27.3,29.85,SE,145,0.0,0.0,85,0.00,,---,0.00,VWS V14.01,2013-01-24 08:10:00,
2013-01-24 03:20:00,30.9,26.9,29.84,SE,145,0.0,0.0,85,0.00,,---,0.00,VWS V14.01,2013-01-24 08:20:00,
2013-01-24 03:30:00,30.6,26.9,29.84,SE,145,0.0,0.0,86,0.00,,---,0.00,VWS V14.01,2013-01-24 08:30:00,
2013-01-24 03:40:00,30.4,27.0,29.84,SE,145,0.0,0.0,87,0.00,,---,0.00,VWS V14.01,2013-01-24 08:40:00,
2013-01-24 03:50:00,30.4,27.3,29.83,SE,145,0.0,0.0,88,0.00,,---,0.00,VWS V14.01,2013-01-24 08:50:00,
2013-01-24 04:00:00,30.4,27.5,29.82,SSE,147,0.0,0.0,89,0.00,,---,0.00,VWS V14.01,2013-01-24 09:00:00,
2013-01-24 04:10:00,31.0,28.1,29.82,SSE,147,0.0,0.0,89,0.00,,---,0.00,VWS V14.01,2013-01-24 09:10:00,
2013-01-24 04:20:00,31.9,28.5,29.81,SSE,150,0.0,0.0,87,0.00,,---,0.00,VWS V14.01,2013-01-24 09:20:00,
2013-01-24 04:30:00,32.4,28.7,29.81,SSW,198,0.0,5.0,86,0.00,,---,0.00,VWS V14.01,2013-01-24 09:30:00,
2013-01-24 04:40:00,32.7,29.0,29.81,SSE,157,0.0,1.0,86,0.00,,---,0.00,VWS V14.01,2013-01-24 09:40:00,
2013-01-24 04:50:00,32.9,29.2,29.82,South,184,0.0,0.0,86,0.00,,---,0.00,VWS V14.01,2013-01-24 09:50:00,
2013-01-24 05:00:00,33.1,29.4,29.82,SSE,154,0.0,1.0,86,0.00,,---,0.00,VWS V14.01,2013-01-24 10:00:00,
2013-01-24 05:10:00,33.4,29.7,29.82,SSE,154,0.0,0.0,86,0.00,,---,0.00,VWS V14.01,2013-01-24 10:10:00,
2013-01-24 05:20:00,33.7,30.0,29.82,SSE,154,0.0,0.0,86,0.00,,---,0.00,VWS V14.01,2013-01-24 10:20:00,
2013-01-24 05:30:00,33.8,30.1,29.83,SSE,157,0.0,0.0,86,0.00,,---,0.00,VWS V14.01,2013-01-24 10:30:00,
2013-01-24 05:40:00,34.0,30.3,29.83,West,272,0.0,1.0,86,0.00,,---,0.00,VWS V14.01,2013-01-24 10:40:00,
2013-01-24 05:50:00,34.1,30.4,29.86,West,280,0.0,5.0,86,0.00,,---,0.00,VWS V14.01,2013-01-24 10:50:00,
2013-01-24 06:00:00,34.7,30.1,29.87,North,354,0.0,6.0,83,0.00,,---,0.00,VWS V14.01,2013-01-24 11:00:00,
2013-01-24 06:10:00,35.2,30.0,29.87,NW,316,0.0,6.0,81,0.00,,---,0.00,VWS V14.01,2013-01-24 11:10:00,
2013-01-24 06:20:00,35.3,29.8,29.89,WNW,294,0.0,3.0,80,0.00,,---,0.00,VWS V14.01,2013-01-24 11:20:00,
2013-01-24 06:30:00,35.0,29.2,29.90,NW,304,4.0,6.0,79,0.00,,---,0.00,VWS V14.01,2013-01-24 11:30:00,
2013-01-24 06:40:00,34.6,28.5,29.90,NW,311,1.0,4.0,78,0.00,,---,0.00,VWS V14.01,2013-01-24 11:40:00,
2013-01-24 06:50:00,34.1,27.7,29.91,WNW,288,0.0,2.0,77,0.00,,---,0.00,VWS V14.01,2013-01-24 11:50:00,
2013-01-24 07:00:00,33.8,27.7,29.92,WNW,288,1.0,3.0,78,0.00,,---,0.00,VWS V14.01,2013-01-24 12:00:00,
2013-01-24 07:10:00,33.4,26.7,29.92,WNW,284,2.0,5.0,76,0.00,,---,0.00,VWS V14.01,2013-01-24 12:10:00,
2013-01-24 07:20:00,33.1,26.0,29.93,NNW,342,0.0,6.0,75,0.00,,---,0.00,VWS V14.01,2013-01-24 12:20:00,
2013-01-24 07:30:00,32.9,25.9,29.95,West,277,0.0,7.0,75,0.00,,---,0.00,VWS V14.01,2013-01-24 12:30:00,
2013-01-24 07:40:00,32.7,26.0,29.95,WNW,291,0.0,2.0,76,0.00,,---,0.00,VWS V14.01,2013-01-24 12:40:00,
2013-01-24 07:50:00,32.5,25.8,29.96,NW,325,0.0,3.0,76,0.00,,---,0.00,VWS V14.01,2013-01-24 12:50:00,
2013-01-24 08:00:00,32.5,25.1,29.97,NW,309,0.0,3.0,74,0.00,,---,0.00,VWS V14.01,2013-01-24 13:00:00,
2013-01-24 08:10:00,32.5,25.1,29.97,NNW,337,0.0,8.0,74,0.00,,---,0.00,VWS V14.01,2013-01-24 13:10:00,
2013-01-24 08:20:00,32.5,24.5,29.99,NW,318,0.0,6.0,72,0.00,,---,0.00,VWS V14.01,2013-01-24 13:20:00,
2013-01-24 08:30:00,32.5,24.2,30.00,NNW,344,0.0,10.0,71,0.00,,---,0.00,VWS V14.01,2013-01-24 13:30:00,
2013-01-24 08:40:00,32.5,24.2,30.00,NNW,340,3.0,7.0,71,0.00,,---,0.00,VWS V14.01,2013-01-24 13:40:00,
2013-01-24 08:50:00,32.5,24.2,30.02,North,357,0.0,10.0,71,0.00,,---,0.00,VWS V14.01,2013-01-24 13:50:00,
2013-01-24 09:00:00,32.5,23.8,30.03,NNW,329,0.0,11.0,70,0.00,,---,0.00,VWS V14.01,2013-01-24 14:00:00,
2013-01-24 09:10:00,32.8,23.8,30.03,North,352,5.0,6.0,69,0.00,,---,0.00,VWS V14.01,2013-01-24 14:10:00,
2013-01-24 09:20:00,33.2,23.5,30.05,NW,323,6.0,7.0,67,0.00,,---,0.00,VWS V14.01,2013-01-24 14:20:00,
2013-01-24 09:30:00,33.8,24.4,30.05,West,267,3.0,7.0,68,0.00,,---,0.00,VWS V14.01,2013-01-24 14:30:00,
2013-01-24 09:40:00,34.6,23.7,30.05,North,349,6.0,11.0,64,0.00,,---,0.00,VWS V14.01,2013-01-24 14:40:00,
2013-01-24 09:50:00,34.4,23.1,30.07,NW,322,5.0,13.0,63,0.00,,---,0.00,VWS V14.01,2013-01-24 14:50:00,
2013-01-24 10:00:00,34.7,23.0,30.08,NE,42,9.0,17.0,62,0.00,,---,0.00,VWS V14.01,2013-01-24 15:00:00,
2013-01-24 10:10:00,34.9,23.2,30.08,WNW,298,6.0,17.0,62,0.00,,---,0.00,VWS V14.01,2013-01-24 15:10:00,
2013-01-24 10:20:00,34.7,23.0,30.09,NNW,336,10.0,18.0,62,0.00,,---,0.00,VWS V14.01,2013-01-24 15:20:00,
2013-01-24 10:30:00,35.5,23.0,30.10,NW,318,6.0,14.0,60,0.00,,---,0.00,VWS V14.01,2013-01-24 15:30:00,
2013-01-24 10:40:00,35.5,22.6,30.10,NNW,333,5.0,13.0,59,0.00,,---,0.00,VWS V14.01,2013-01-24 15:40:00,
2013-01-24 10:50:00,35.3,22.4,30.11,North,1,9.0,14.0,59,0.00,,---,0.00,VWS V14.01,2013-01-24 15:50:00,
2013-01-24 11:00:00,35.0,22.5,30.12,West,278,5.0,12.0,60,0.00,,---,0.00,VWS V14.01,2013-01-24 16:00:00,
2013-01-24 11:10:00,34.9,22.8,30.12,NW,319,11.0,17.0,61,0.00,,---,0.00,VWS V14.01,2013-01-24 16:10:00,
2013-01-24 11:20:00,34.3,21.9,30.12,West,278,5.0,19.0,60,0.00,,---,0.00,VWS V14.01,2013-01-24 16:20:00,
2013-01-24 11:30:00,34.3,21.5,30.14,NNW,335,10.0,16.0,59,0.00,,---,0.00,VWS V14.01,2013-01-24 16:30:00,
2013-01-24 11:40:00,34.3,21.1,30.14,WNW,291,3.0,14.0,58,0.00,,---,0.00,VWS V14.01,2013-01-24 16:40:00,
2013-01-24 11:50:00,34.9,21.6,30.16,WNW,287,5.0,11.0,58,0.00,,---,0.00,VWS V14.01,2013-01-24 16:50:00,
2013-01-24 12:00:00,34.7,20.6,30.16,WNW,289,0.0,18.0,56,0.00,,---,0.00,VWS V14.01,2013-01-24 17:00:00,
2013-01-24 12:10:00,35.0,18.7,30.16,NW,311,13.0,13.0,51,0.00,,---,0.00,VWS V14.01,2013-01-24 17:10:00,
2013-01-24 12:20:00,34.9,18.2,30.17,WNW,292,2.0,16.0,50,0.00,,---,0.00,VWS V14.01,2013-01-24 17:20:00,
2013-01-24 12:30:00,35.0,17.8,30.17,WNW,289,5.0,14.0,49,0.00,,---,0.00,VWS V14.01,2013-01-24 17:30:00,
2013-01-24 12:40:00,34.7,16.0,30.17,NW,313,6.0,13.0,46,0.00,,---,0.00,VWS V14.01,2013-01-24 17:40:00,
2013-01-24 12:50:00,35.0,15.3,30.18,West,260,10.0,14.0,44,0.00,,---,0.00,VWS V14.01,2013-01-24 17:50:00,
2013-01-24 13:00:00,34.6,12.8,30.18,West,267,3.0,16.0,40,0.00,,---,0.00,VWS V14.01,2013-01-24 18:00:00,
2013-01-24 13:10:00,34.4,15.8,30.18,NNW,333,5.0,13.0,46,0.00,,---,0.00,VWS V14.01,2013-01-24 18:10:00,
2013-01-24 13:20:00,34.4,22.0,30.18,NW,318,0.0,11.0,60,0.00,,---,0.00,VWS V14.01,2013-01-24 18:20:00,
2013-01-24 13:30:00,33.8,21.4,30.19,North,353,0.0,12.0,60,0.00,,---,0.00,VWS V14.01,2013-01-24 18:30:00,
2013-01-24 13:40:00,33.5,21.5,30.19,NNW,347,1.0,10.0,61,0.00,,---,0.00,VWS V14.01,2013-01-24 18:40:00,
2013-01-24 13:50:00,34.0,22.0,30.20,NNW,330,5.0,7.0,61,0.00,,---,0.00,VWS V14.01,2013-01-24 18:50:00,
2013-01-24 14:00:00,33.4,21.4,30.20,NNW,332,1.0,10.0,61,0.00,,---,0.00,VWS V14.01,2013-01-24 19:00:00,
2013-01-24 14:10:00,33.4,19.8,30.20,North,356,6.0,14.0,57,0.00,,---,0.00,VWS V14.01,2013-01-24 19:10:00,
2013-01-24 14:20:00,33.5,19.9,30.21,WNW,298,0.0,10.0,57,0.00,,---,0.00,VWS V14.01,2013-01-24 19:20:00,
2013-01-24 14:30:00,33.5,19.9,30.22,North,359,2.0,10.0,57,0.00,,---,0.00,VWS V14.01,2013-01-24 19:30:00,
2013-01-24 14:40:00,33.8,19.8,30.22,North,357,2.0,10.0,56,0.00,,---,0.00,VWS V14.01,2013-01-24 19:40:00,
2013-01-24 14:50:00,32.9,18.9,30.23,North,0,0.0,10.0,56,0.00,,---,0.00,VWS V14.01,2013-01-24 19:50:00,
2013-01-24 15:00:00,32.4,18.5,30.23,WSW,254,0.0,4.0,56,0.00,,---,0.00,VWS V14.01,2013-01-24 20:00:00,
2013-01-24 15:10:00,33.1,18.7,30.23,WSW,253,0.0,7.0,55,0.00,,---,0.00,VWS V14.01,2013-01-24 20:10:00,
2013-01-24 15:20:00,33.2,19.2,30.25,NW,320,0.0,6.0,56,0.00,,---,0.00,VWS V14.01,2013-01-24 20:20:00,
2013-01-24 15:30:00,32.5,18.6,30.25,North,352,0.0,3.0,56,0.00,,---,0.00,VWS V14.01,2013-01-24 20:30:00,
2013-01-24 15:40:00,32.5,19.0,30.25,NW,309,0.0,9.0,57,0.00,,---,0.00,VWS V14.01,2013-01-24 20:40:00,
2013-01-24 15:50:00,32.1,17.8,30.26,NNW,335,0.0,8.0,55,0.00,,---,0.00,VWS V14.01,2013-01-24 20:50:00,
2013-01-24 16:00:00,31.3,17.4,30.27,NW,304,0.0,6.0,56,0.00,,---,0.00,VWS V14.01,2013-01-24 21:00:00,
2013-01-24 16:10:00,31.2,16.9,30.27,WNW,301,0.0,3.0,55,0.00,,---,0.00,VWS V14.01,2013-01-24 21:10:00,
2013-01-24 16:20:00,31.5,15.9,30.27,WNW,299,0.0,7.0,52,0.00,,---,0.00,VWS V14.01,2013-01-24 21:20:00,
2013-01-24 16:30:00,31.5,17.2,30.28,NNW,336,2.0,8.0,55,0.00,,---,0.00,VWS V14.01,2013-01-24 21:30:00,
2013-01-24 16:40:00,31.0,16.7,30.28,NNW,328,0.0,6.0,55,0.00,,---,0.00,VWS V14.01,2013-01-24 21:40:00,
2013-01-24 16:50:00,30.6,16.8,30.29,NW,325,0.0,7.0,56,0.00,,---,0.00,VWS V14.01,2013-01-24 21:50:00,
2013-01-24 17:00:00,30.4,16.6,30.29,North,356,0.0,3.0,56,0.00,,---,0.00,VWS V14.01,2013-01-24 22:00:00,
2013-01-24 17:10:00,30.1,16.3,30.29,North,0,0.0,1.0,56,0.00,,---,0.00,VWS V14.01,2013-01-24 22:10:00,
2013-01-24 17:20:00,29.8,15.2,30.31,North,0,0.0,0.0,54,0.00,,---,0.00,VWS V14.01,2013-01-24 22:20:00,
2013-01-24 17:30:00,29.7,15.1,30.31,WNW,289,0.0,6.0,54,0.00,,---,0.00,VWS V14.01,2013-01-24 22:30:00,
2013-01-24 17:40:00,29.5,15.8,30.31,WNW,289,0.0,0.0,56,0.00,,---,0.00,VWS V14.01,2013-01-24 22:40:00,
2013-01-24 17:50:00,29.3,15.6,30.31,WNW,287,0.0,0.0,56,0.00,,---,0.00,VWS V14.01,2013-01-24 22:50:00,
2013-01-24 18:00:00,29.0,14.9,30.32,NW,304,0.0,3.0,55,0.00,,---,0.00,VWS V14.01,2013-01-24 23:00:00,
2013-01-24 18:10:00,29.0,15.7,30.32,North,0,0.0,0.0,57,0.00,,---,0.00,VWS V14.01,2013-01-24 23:10:00,
2013-01-24 18:20:00,28.7,16.2,30.33,North,0,0.0,0.0,59,0.00,,---,0.00,VWS V14.01,2013-01-24 23:20:00,
2013-01-24 18:30:00,28.4,15.9,30.34,North,0,0.0,0.0,59,0.00,,---,0.00,VWS V14.01,2013-01-24 23:30:00,
2013-01-24 18:40:00,28.1,16.0,30.34,North,0,0.0,0.0,60,0.00,,---,0.00,VWS V14.01,2013-01-24 23:40:00,
2013-01-24 18:50:00,27.8,15.7,30.34,North,0,0.0,0.0,60,0.00,,---,0.00,VWS V14.01,2013-01-24 23:50:00,
2013-01-24 19:00:00,27.5,15.4,30.35,North,0,0.0,0.0,60,0.00,,---,0.00,VWS V14.01,2013-01-25 00:00:00,
2013-01-24 19:10:00,27.2,15.9,30.35,North,0,0.0,0.0,62,0.00,,---,0.00,VWS V14.01,2013-01-25 00:10:00,
2013-01-24 19:20:00,27.0,15.7,30.36,North,0,0.0,0.0,62,0.00,,---,0.00,VWS V14.01,2013-01-25 00:20:00,
2013-01-24 19:30:00,26.7,15.8,30.36,North,357,0.0,0.0,63,0.00,,---,0.00,VWS V14.01,2013-01-25 00:30:00,
2013-01-24 19:40:00,26.6,16.1,30.36,North,357,0.0,0.0,64,0.00,,---,0.00,VWS V14.01,2013-01-25 00:40:00,
2013-01-24 19:50:00,26.4,15.5,30.37,North,357,0.0,0.0,63,0.00,,---,0.00,VWS V14.01,2013-01-25 00:50:00,
2013-01-24 20:00:00,26.3,15.8,30.36,North,357,0.0,0.0,64,0.00,,---,0.00,VWS V14.01,2013-01-25 01:00:00,
2013-01-24 20:10:00,26.0,15.5,30.36,North,357,0.0,0.0,64,0.00,,---,0.00,VWS V14.01,2013-01-25 01:10:00,
2013-01-24 20:20:00,25.7,15.2,30.37,WNW,292,0.0,0.0,64,0.00,,---,0.00,VWS V14.01,2013-01-25 01:20:00,
2013-01-24 20:30:00,25.7,15.9,30.38,North,357,0.0,0.0,66,0.00,,---,0.00,VWS V14.01,2013-01-25 01:30:00,
2013-01-24 20:40:00,25.4,16.0,30.38,North,0,0.0,0.0,67,0.00,,---,0.00,VWS V14.01,2013-01-25 01:40:00,
2013-01-24 21:00:00,25.0,15.6,30.38,North,357,0.0,0.0,67,0.00,,---,0.00,VWS V14.01,2013-01-25 02:00:00,
2013-01-24 21:10:00,24.7,15.3,30.38,North,357,0.0,0.0,67,0.00,,---,0.00,VWS V14.01,2013-01-25 02:10:00,
2013-01-24 21:20:00,24.4,15.4,30.39,North,357,0.0,0.0,68,0.00,,---,0.00,VWS V14.01,2013-01-25 02:20:00,
2013-01-24 21:30:00,24.1,15.4,30.38,North,357,0.0,0.0,69,0.00,,---,0.00,VWS V14.01,2013-01-25 02:30:00,
2013-01-24 21:40:00,23.9,15.2,30.38,North,357,0.0,0.0,69,0.00,,---,0.00,VWS V14.01,2013-01-25 02:40:00,
2013-01-24 21:50:00,23.8,15.5,30.38,North,357,0.0,0.0,70,0.00,,---,0.00,VWS V14.01,2013-01-25 02:50:00,
2013-01-24 22:00:00,23.6,15.3,30.37,North,357,0.0,0.0,70,0.00,,---,0.00,VWS V14.01,2013-01-25 03:00:00,
2013-01-24 22:10:00,23.5,15.8,30.37,North,357,0.0,0.0,72,0.00,,---,0.00,VWS V14.01,2013-01-25 03:10:00,
2013-01-24 22:20:00,23.3,15.3,30.38,North,357,0.0,0.0,71,0.00,,---,0.00,VWS V14.01,2013-01-25 03:20:00,
2013-01-24 22:30:00,23.2,14.9,30.39,North,357,0.0,0.0,70,0.00,,---,0.00,VWS V14.01,2013-01-25 03:30:00,
2013-01-24 22:40:00,23.0,14.4,30.39,North,357,0.0,0.0,69,0.00,,---,0.00,VWS V14.01,2013-01-25 03:40:00,
2013-01-24 22:50:00,23.0,14.4,30.38,North,357,0.0,0.0,69,0.00,,---,0.00,VWS V14.01,2013-01-25 03:50:00,
2013-01-24 23:00:00,22.9,13.9,30.38,North,357,0.0,0.0,68,0.00,,---,0.00,VWS V14.01,2013-01-25 04:00:00,
2013-01-24 23:10:00,22.7,14.1,30.38,North,357,0.0,0.0,69,0.00,,---,0.00,VWS V14.01,2013-01-25 04:10:00,
2013-01-24 23:20:00,22.5,13.6,30.38,North,357,0.0,0.0,68,0.00,,---,0.00,VWS V14.01,2013-01-25 04:20:00,
2013-01-24 23:30:00,22.4,13.4,30.38,North,357,0.0,0.0,68,0.00,,---,0.00,VWS V14.01,2013-01-25 04:30:00,
2013-01-24 23:40:00,22.2,13.6,30.38,North,357,0.0,0.0,69,0.00,,---,0.00,VWS V14.01,2013-01-25 04:40:00,
2013-01-24 23:50:00,22.1,13.8,30.37,North,357,0.0,0.0,70,0.00,,---,0.00,VWS V14.01,2013-01-25 04:50:00,